KUIL/UIL METAR and TAF weather

Enter ICAO airport designator
Station Type Date Time Source
KUIL METAR 2019/12/05 14:53 UTC NOAA

KUIL 051453Z AUTO 00000KT 10SM OVC037 06/05 A2995 RMK AO2 SLP142 T00610050 53002


Station Type Date Time Source
KUIL Decoded METAR 2019/12/05 14:53 UTC NOAA

QUILLAYUTE STATE AIRPORT, WA, United States (KUIL) 47-56N 124-34W 54M
Dec 05, 2019 - 09:53 AM EST / 2019.12.05 1453 UTC
Wind: Calm:0
Visibility: 10 mile(s):0
Sky conditions: overcast
Temperature: 43.0 F (6.1 C)
Dew Point: 41.0 F (5.0 C)
Relative Humidity: 92%
Pressure (altimeter): 29.95 in. Hg (1014 hPa)
Pressure tendency: 0.01 inches (0.2 hPa) higher than three hours ago
ob: KUIL 051453Z AUTO 00000KT 10SM OVC037 06/05 A2995 RMK AO2 SLP142 T00610050 53002
cycle: 15

Station Type Date Time Source
KUIL TAF UTC NOAA

Error!

Example: see airport list